sensor_id;sensor_type;location;lat;lon;timestamp;P1;durP1;ratioP1;P2;durP2;ratioP2
6955;SDS011;50345;51.136;16.886;2022-11-11T00:00:04;23.80;;;15.82;;
6955;SDS011;50345;51.136;16.886;2022-11-11T00:02:31;23.33;;;16.98;;
6955;SDS011;50345;51.136;16.886;2022-11-11T00:04:57;23.50;;;15.75;;
6955;SDS011;50345;51.136;16.886;2022-11-11T00:07:23;17.27;;;13.82;;
6955;SDS011;50345;51.136;16.886;2022-11-11T00:09:49;19.88;;;15.95;;
6955;SDS011;50345;51.136;16.886;2022-11-11T00:12:15;23.00;;;16.33;;
6955;SDS011;50345;51.136;16.886;2022-11-11T00:14:41;22.38;;;15.95;;
6955;SDS011;50345;51.136;16.886;2022-11-11T00:17:08;21.13;;;14.88;;
6955;SDS011;50345;51.136;16.886;2022-11-11T00:19:55;20.70;;;16.20;;
6955;SDS011;50345;51.136;16.886;2022-11-11T00:22:39;21.20;;;15.70;;
6955;SDS011;50345;51.136;16.886;2022-11-11T00:25:24;23.73;;;16.05;;
6955;SDS011;50345;51.136;16.886;2022-11-11T00:27:50;21.83;;;15.95;;
6955;SDS011;50345;51.136;16.886;2022-11-11T00:30:16;19.08;;;13.80;;
6955;SDS011;50345;51.136;16.886;2022-11-11T00:32:42;19.33;;;15.57;;
6955;SDS011;50345;51.136;16.886;2022-11-11T00:35:08;19.58;;;14.20;;
6955;SDS011;50345;51.136;16.886;2022-11-11T00:37:53;21.10;;;15.70;;
6955;SDS011;50345;51.136;16.886;2022-11-11T00:40:19;22.98;;;15.60;;
6955;SDS011;50345;51.136;16.886;2022-11-11T00:42:45;23.10;;;15.75;;
6955;SDS011;50345;51.136;16.886;2022-11-11T00:45:11;20.80;;;16.00;;
6955;SDS011;50345;51.136;16.886;2022-11-11T00:47:37;20.65;;;14.93;;
6955;SDS011;50345;51.136;16.886;2022-11-11T00:50:23;29.52;;;14.98;;
6955;SDS011;50345;51.136;16.886;2022-11-11T00:53:09;21.33;;;15.90;;
6955;SDS011;50345;51.136;16.886;2022-11-11T00:55:35;24.30;;;16.45;;
6955;SDS011;50345;51.136;16.886;2022-11-11T00:58:02;18.77;;;14.60;;
6955;SDS011;50345;51.136;16.886;2022-11-11T01:00:28;20.23;;;16.23;;
6955;SDS011;50345;51.136;16.886;2022-11-11T01:02:54;22.02;;;14.85;;
6955;SDS011;50345;51.136;16.886;2022-11-11T01:05:20;21.77;;;15.00;;
6955;SDS011;50345;51.136;16.886;2022-11-11T01:07:47;18.55;;;14.30;;
6955;SDS011;50345;51.136;16.886;2022-11-11T01:10:14;18.48;;;14.52;;
6955;SDS011;50345;51.136;16.886;2022-11-11T01:13:00;19.05;;;15.60;;
6955;SDS011;50345;51.136;16.886;2022-11-11T01:15:42;19.48;;;15.15;;
6955;SDS011;50345;51.136;16.886;2022-11-11T01:18:09;16.95;;;13.35;;
6955;SDS011;50345;51.136;16.886;2022-11-11T01:20:35;16.60;;;12.20;;
6955;SDS011;50345;51.136;16.886;2022-11-11T01:23:05;16.73;;;11.20;;
6955;SDS011;50345;51.136;16.886;2022-11-11T01:25:35;17.63;;;12.93;;
6955;SDS011;50345;51.136;16.886;2022-11-11T01:28:01;13.68;;;11.00;;
6955;SDS011;50345;51.136;16.886;2022-11-11T01:30:27;17.73;;;11.73;;
6955;SDS011;50345;51.136;16.886;2022-11-11T01:32:53;15.15;;;10.57;;
6955;SDS011;50345;51.136;16.886;2022-11-11T01:35:19;15.48;;;11.95;;
6955;SDS011;50345;51.136;16.886;2022-11-11T01:37:45;17.58;;;11.85;;
6955;SDS011;50345;51.136;16.886;2022-11-11T01:40:11;15.02;;;10.40;;
6955;SDS011;50345;51.136;16.886;2022-11-11T01:47:57;10.38;;;9.20;;
6955;SDS011;50345;51.136;16.886;2022-11-11T01:50:42;12.60;;;8.68;;
6955;SDS011;50345;51.136;16.886;2022-11-11T01:53:09;12.32;;;10.32;;
6955;SDS011;50345;51.136;16.886;2022-11-11T01:55:35;10.90;;;8.80;;
6955;SDS011;50345;51.136;16.886;2022-11-11T01:58:08;14.30;;;9.88;;
6955;SDS011;50345;51.136;16.886;2022-11-11T02:00:36;14.52;;;9.30;;
6955;SDS011;50345;51.136;16.886;2022-11-11T02:03:06;12.45;;;8.60;;
6955;SDS011;50345;51.136;16.886;2022-11-11T02:05:33;12.02;;;9.07;;
6955;SDS011;50345;51.136;16.886;2022-11-11T02:08:14;11.93;;;9.55;;
6955;SDS011;50345;51.136;16.886;2022-11-11T02:10:56;14.27;;;10.60;;
6955;SDS011;50345;51.136;16.886;2022-11-11T02:13:23;14.90;;;10.50;;
6955;SDS011;50345;51.136;16.886;2022-11-11T02:16:08;11.48;;;8.75;;
6955;SDS011;50345;51.136;16.886;2022-11-11T02:18:34;15.07;;;9.95;;
6955;SDS011;50345;51.136;16.886;2022-11-11T02:21:00;16.90;;;10.23;;
6955;SDS011;50345;51.136;16.886;2022-11-11T02:25:52;13.35;;;9.27;;
6955;SDS011;50345;51.136;16.886;2022-11-11T02:28:20;16.98;;;9.63;;
6955;SDS011;50345;51.136;16.886;2022-11-11T02:30:47;12.90;;;9.50;;
6955;SDS011;50345;51.136;16.886;2022-11-11T02:33:13;10.18;;;8.60;;
6955;SDS011;50345;51.136;16.886;2022-11-11T02:35:40;12.02;;;10.30;;
6955;SDS011;50345;51.136;16.886;2022-11-11T02:38:07;14.80;;;9.25;;
6955;SDS011;50345;51.136;16.886;2022-11-11T02:43:23;14.60;;;9.45;;
6955;SDS011;50345;51.136;16.886;2022-11-11T02:45:49;11.63;;;9.95;;
6955;SDS011;50345;51.136;16.886;2022-11-11T02:48:15;10.55;;;9.45;;
6955;SDS011;50345;51.136;16.886;2022-11-11T02:50:41;14.68;;;9.30;;
6955;SDS011;50345;51.136;16.886;2022-11-11T02:53:07;13.50;;;9.52;;
6955;SDS011;50345;51.136;16.886;2022-11-11T02:55:33;11.30;;;8.90;;
6955;SDS011;50345;51.136;16.886;2022-11-11T02:58:02;12.32;;;9.45;;
6955;SDS011;50345;51.136;16.886;2022-11-11T03:00:28;14.55;;;10.25;;
6955;SDS011;50345;51.136;16.886;2022-11-11T03:02:54;14.02;;;9.13;;
6955;SDS011;50345;51.136;16.886;2022-11-11T03:05:20;15.65;;;9.32;;
6955;SDS011;50345;51.136;16.886;2022-11-11T03:07:46;12.70;;;10.45;;
6955;SDS011;50345;51.136;16.886;2022-11-11T03:10:12;15.10;;;9.65;;
6955;SDS011;50345;51.136;16.886;2022-11-11T03:12:38;19.13;;;11.73;;
6955;SDS011;50345;51.136;16.886;2022-11-11T03:15:04;11.32;;;8.70;;
6955;SDS011;50345;51.136;16.886;2022-11-11T03:17:30;14.27;;;9.73;;
6955;SDS011;50345;51.136;16.886;2022-11-11T03:20:06;11.30;;;8.07;;
6955;SDS011;50345;51.136;16.886;2022-11-11T03:25:45;13.70;;;8.85;;
6955;SDS011;50345;51.136;16.886;2022-11-11T03:28:12;12.98;;;10.02;;
6955;SDS011;50345;51.136;16.886;2022-11-11T03:30:40;14.15;;;8.50;;
6955;SDS011;50345;51.136;16.886;2022-11-11T03:33:06;14.65;;;8.07;;
6955;SDS011;50345;51.136;16.886;2022-11-11T03:35:32;12.30;;;8.80;;
6955;SDS011;50345;51.136;16.886;2022-11-11T03:37:58;11.77;;;7.53;;
6955;SDS011;50345;51.136;16.886;2022-11-11T03:40:44;9.55;;;8.10;;
6955;SDS011;50345;51.136;16.886;2022-11-11T03:43:11;18.23;;;8.57;;
6955;SDS011;50345;51.136;16.886;2022-11-11T03:45:37;11.95;;;7.50;;
6955;SDS011;50345;51.136;16.886;2022-11-11T03:48:03;11.15;;;8.52;;
6955;SDS011;50345;51.136;16.886;2022-11-11T03:50:30;11.55;;;8.05;;
6955;SDS011;50345;51.136;16.886;2022-11-11T03:52:56;9.73;;;8.13;;
6955;SDS011;50345;51.136;16.886;2022-11-11T03:55:22;9.02;;;8.13;;
6955;SDS011;50345;51.136;16.886;2022-11-11T03:57:48;12.10;;;7.65;;
6955;SDS011;50345;51.136;16.886;2022-11-11T04:00:15;10.07;;;7.43;;
6955;SDS011;50345;51.136;16.886;2022-11-11T04:02:41;12.55;;;7.78;;
6955;SDS011;50345;51.136;16.886;2022-11-11T04:05:26;11.57;;;8.02;;
6955;SDS011;50345;51.136;16.886;2022-11-11T04:08:12;9.70;;;7.10;;
6955;SDS011;50345;51.136;16.886;2022-11-11T04:10:57;11.27;;;9.05;;
6955;SDS011;50345;51.136;16.886;2022-11-11T04:13:23;10.32;;;7.05;;
6955;SDS011;50345;51.136;16.886;2022-11-11T04:16:09;12.35;;;8.85;;
6955;SDS011;50345;51.136;16.886;2022-11-11T04:18:35;12.40;;;8.75;;
6955;SDS011;50345;51.136;16.886;2022-11-11T04:21:20;10.45;;;9.35;;
6955;SDS011;50345;51.136;16.886;2022-11-11T04:24:05;15.23;;;9.02;;
6955;SDS011;50345;51.136;16.886;2022-11-11T04:26:50;13.82;;;11.05;;
6955;SDS011;50345;51.136;16.886;2022-11-11T04:29:18;12.70;;;9.98;;
6955;SDS011;50345;51.136;16.886;2022-11-11T04:32:14;14.88;;;9.63;;
6955;SDS011;50345;51.136;16.886;2022-11-11T04:35:07;13.32;;;10.23;;
6955;SDS011;50345;51.136;16.886;2022-11-11T04:37:35;18.85;;;12.43;;
6955;SDS011;50345;51.136;16.886;2022-11-11T04:40:01;17.15;;;13.50;;
6955;SDS011;50345;51.136;16.886;2022-11-11T04:42:46;13.85;;;12.38;;
6955;SDS011;50345;51.136;16.886;2022-11-11T04:45:12;17.17;;;14.38;;
6955;SDS011;50345;51.136;16.886;2022-11-11T04:48:06;13.50;;;10.65;;
6955;SDS011;50345;51.136;16.886;2022-11-11T04:50:34;14.57;;;12.27;;
6955;SDS011;50345;51.136;16.886;2022-11-11T04:53:00;18.25;;;14.63;;
6955;SDS011;50345;51.136;16.886;2022-11-11T04:55:27;20.40;;;12.63;;
6955;SDS011;50345;51.136;16.886;2022-11-11T04:58:12;16.60;;;13.95;;
6955;SDS011;50345;51.136;16.886;2022-11-11T05:00:38;21.08;;;13.25;;
6955;SDS011;50345;51.136;16.886;2022-11-11T05:03:04;16.63;;;10.93;;
6955;SDS011;50345;51.136;16.886;2022-11-11T05:05:48;18.48;;;11.35;;
6955;SDS011;50345;51.136;16.886;2022-11-11T05:08:34;10.93;;;9.82;;
6955;SDS011;50345;51.136;16.886;2022-11-11T05:11:19;15.27;;;10.68;;
6955;SDS011;50345;51.136;16.886;2022-11-11T05:13:46;14.02;;;10.00;;
6955;SDS011;50345;51.136;16.886;2022-11-11T05:16:31;12.60;;;9.10;;
6955;SDS011;50345;51.136;16.886;2022-11-11T05:19:16;13.30;;;9.07;;
6955;SDS011;50345;51.136;16.886;2022-11-11T05:22:06;11.68;;;9.90;;
6955;SDS011;50345;51.136;16.886;2022-11-11T05:24:34;14.05;;;9.45;;
6955;SDS011;50345;51.136;16.886;2022-11-11T05:27:18;12.55;;;10.00;;
6955;SDS011;50345;51.136;16.886;2022-11-11T05:29:45;11.60;;;8.98;;
6955;SDS011;50345;51.136;16.886;2022-11-11T05:32:14;11.20;;;9.70;;
6955;SDS011;50345;51.136;16.886;2022-11-11T05:34:41;17.80;;;9.48;;
6955;SDS011;50345;51.136;16.886;2022-11-11T05:37:07;11.65;;;9.27;;
6955;SDS011;50345;51.136;16.886;2022-11-11T05:39:33;11.43;;;8.25;;
6955;SDS011;50345;51.136;16.886;2022-11-11T05:41:59;12.00;;;9.07;;
6955;SDS011;50345;51.136;16.886;2022-11-11T05:44:25;15.23;;;9.15;;
6955;SDS011;50345;51.136;16.886;2022-11-11T05:46:51;13.23;;;10.07;;
6955;SDS011;50345;51.136;16.886;2022-11-11T05:49:17;14.02;;;10.82;;
6955;SDS011;50345;51.136;16.886;2022-11-11T05:51:43;11.80;;;9.50;;
6955;SDS011;50345;51.136;16.886;2022-11-11T05:54:10;23.75;;;17.88;;
6955;SDS011;50345;51.136;16.886;2022-11-11T05:56:36;16.88;;;13.70;;
6955;SDS011;50345;51.136;16.886;2022-11-11T05:59:02;13.02;;;10.90;;
6955;SDS011;50345;51.136;16.886;2022-11-11T06:01:29;13.63;;;11.23;;
6955;SDS011;50345;51.136;16.886;2022-11-11T06:03:55;15.07;;;13.45;;
6955;SDS011;50345;51.136;16.886;2022-11-11T06:06:21;13.85;;;10.88;;
6955;SDS011;50345;51.136;16.886;2022-11-11T06:08:47;18.77;;;14.10;;
6955;SDS011;50345;51.136;16.886;2022-11-11T06:11:13;13.88;;;12.07;;
6955;SDS011;50345;51.136;16.886;2022-11-11T06:13:39;12.40;;;10.88;;
6955;SDS011;50345;51.136;16.886;2022-11-11T06:16:05;12.32;;;11.07;;
6955;SDS011;50345;51.136;16.886;2022-11-11T06:18:32;16.50;;;11.38;;
6955;SDS011;50345;51.136;16.886;2022-11-11T06:20:58;12.02;;;10.13;;
6955;SDS011;50345;51.136;16.886;2022-11-11T06:23:25;13.88;;;10.02;;
6955;SDS011;50345;51.136;16.886;2022-11-11T06:25:51;21.23;;;10.02;;
6955;SDS011;50345;51.136;16.886;2022-11-11T06:28:36;13.88;;;8.70;;
6955;SDS011;50345;51.136;16.886;2022-11-11T06:31:02;10.65;;;8.40;;
6955;SDS011;50345;51.136;16.886;2022-11-11T06:33:29;10.55;;;9.13;;
6955;SDS011;50345;51.136;16.886;2022-11-11T06:35:55;12.65;;;9.00;;
6955;SDS011;50345;51.136;16.886;2022-11-11T06:38:21;12.05;;;9.25;;
6955;SDS011;50345;51.136;16.886;2022-11-11T06:40:47;18.90;;;10.82;;
6955;SDS011;50345;51.136;16.886;2022-11-11T06:43:13;14.95;;;9.40;;
6955;SDS011;50345;51.136;16.886;2022-11-11T06:45:39;18.85;;;9.48;;
6955;SDS011;50345;51.136;16.886;2022-11-11T06:48:05;15.07;;;10.75;;
6955;SDS011;50345;51.136;16.886;2022-11-11T06:50:31;18.33;;;9.00;;
6955;SDS011;50345;51.136;16.886;2022-11-11T06:53:08;11.50;;;9.02;;
6955;SDS011;50345;51.136;16.886;2022-11-11T06:55:34;14.48;;;9.80;;
6955;SDS011;50345;51.136;16.886;2022-11-11T06:58:11;10.40;;;8.60;;
6955;SDS011;50345;51.136;16.886;2022-11-11T07:00:38;11.77;;;9.23;;
6955;SDS011;50345;51.136;16.886;2022-11-11T07:03:04;11.48;;;9.40;;
6955;SDS011;50345;51.136;16.886;2022-11-11T07:05:31;13.27;;;9.25;;
6955;SDS011;50345;51.136;16.886;2022-11-11T07:08:00;15.45;;;11.75;;
6955;SDS011;50345;51.136;16.886;2022-11-11T07:10:27;12.77;;;9.48;;
6955;SDS011;50345;51.136;16.886;2022-11-11T07:12:53;12.52;;;10.18;;
6955;SDS011;50345;51.136;16.886;2022-11-11T07:15:19;15.60;;;10.32;;
6955;SDS011;50345;51.136;16.886;2022-11-11T07:17:45;15.40;;;9.98;;
6955;SDS011;50345;51.136;16.886;2022-11-11T07:20:11;15.05;;;10.73;;
6955;SDS011;50345;51.136;16.886;2022-11-11T07:22:37;14.77;;;11.10;;
6955;SDS011;50345;51.136;16.886;2022-11-11T07:25:03;15.05;;;10.30;;
6955;SDS011;50345;51.136;16.886;2022-11-11T07:27:29;14.35;;;10.65;;
6955;SDS011;50345;51.136;16.886;2022-11-11T07:29:55;17.27;;;11.57;;
6955;SDS011;50345;51.136;16.886;2022-11-11T07:32:21;12.13;;;9.90;;
6955;SDS011;50345;51.136;16.886;2022-11-11T07:34:47;12.15;;;8.82;;
6955;SDS011;50345;51.136;16.886;2022-11-11T07:37:14;12.23;;;10.63;;
6955;SDS011;50345;51.136;16.886;2022-11-11T07:39:40;12.60;;;9.25;;
6955;SDS011;50345;51.136;16.886;2022-11-11T07:42:06;15.57;;;9.88;;
6955;SDS011;50345;51.136;16.886;2022-11-11T07:44:32;11.23;;;9.30;;
6955;SDS011;50345;51.136;16.886;2022-11-11T07:46:58;13.57;;;10.00;;
6955;SDS011;50345;51.136;16.886;2022-11-11T07:49:24;18.35;;;10.85;;
6955;SDS011;50345;51.136;16.886;2022-11-11T07:51:50;15.38;;;9.25;;
6955;SDS011;50345;51.136;16.886;2022-11-11T07:54:16;15.65;;;9.05;;
6955;SDS011;50345;51.136;16.886;2022-11-11T07:56:42;16.00;;;10.18;;
6955;SDS011;50345;51.136;16.886;2022-11-11T07:59:08;12.43;;;10.02;;
6955;SDS011;50345;51.136;16.886;2022-11-11T08:01:34;13.80;;;10.38;;
6955;SDS011;50345;51.136;16.886;2022-11-11T08:04:00;12.55;;;10.25;;
6955;SDS011;50345;51.136;16.886;2022-11-11T08:06:26;19.20;;;11.63;;
6955;SDS011;50345;51.136;16.886;2022-11-11T08:08:52;13.30;;;10.02;;
6955;SDS011;50345;51.136;16.886;2022-11-11T08:11:18;13.63;;;9.05;;
6955;SDS011;50345;51.136;16.886;2022-11-11T08:14:04;11.02;;;8.90;;
6955;SDS011;50345;51.136;16.886;2022-11-11T08:16:30;10.50;;;8.30;;
6955;SDS011;50345;51.136;16.886;2022-11-11T08:18:56;11.35;;;9.52;;
6955;SDS011;50345;51.136;16.886;2022-11-11T08:21:22;13.77;;;9.38;;
6955;SDS011;50345;51.136;16.886;2022-11-11T08:23:49;12.25;;;9.02;;
6955;SDS011;50345;51.136;16.886;2022-11-11T08:26:15;10.00;;;8.85;;
6955;SDS011;50345;51.136;16.886;2022-11-11T08:28:42;10.30;;;8.05;;
6955;SDS011;50345;51.136;16.886;2022-11-11T08:31:09;10.15;;;8.43;;
6955;SDS011;50345;51.136;16.886;2022-11-11T08:33:35;11.82;;;8.40;;
6955;SDS011;50345;51.136;16.886;2022-11-11T08:36:01;14.70;;;8.15;;
6955;SDS011;50345;51.136;16.886;2022-11-11T08:38:29;10.85;;;8.30;;
6955;SDS011;50345;51.136;16.886;2022-11-11T08:40:59;13.18;;;9.07;;
6955;SDS011;50345;51.136;16.886;2022-11-11T08:43:26;13.57;;;8.73;;
6955;SDS011;50345;51.136;16.886;2022-11-11T08:45:52;11.70;;;8.95;;
6955;SDS011;50345;51.136;16.886;2022-11-11T08:48:18;8.43;;;7.53;;
6955;SDS011;50345;51.136;16.886;2022-11-11T08:50:44;15.18;;;8.60;;
6955;SDS011;50345;51.136;16.886;2022-11-11T08:53:10;10.98;;;8.07;;
6955;SDS011;50345;51.136;16.886;2022-11-11T08:55:37;11.73;;;8.93;;
6955;SDS011;50345;51.136;16.886;2022-11-11T08:58:04;15.18;;;9.68;;
6955;SDS011;50345;51.136;16.886;2022-11-11T09:00:31;10.05;;;7.93;;
6955;SDS011;50345;51.136;16.886;2022-11-11T09:03:04;11.32;;;8.23;;
6955;SDS011;50345;51.136;16.886;2022-11-11T09:05:31;14.45;;;9.25;;
6955;SDS011;50345;51.136;16.886;2022-11-11T09:08:00;11.65;;;8.40;;
6955;SDS011;50345;51.136;16.886;2022-11-11T09:10:26;10.45;;;8.65;;
6955;SDS011;50345;51.136;16.886;2022-11-11T09:12:59;9.82;;;8.75;;
6955;SDS011;50345;51.136;16.886;2022-11-11T09:15:25;9.95;;;9.00;;
6955;SDS011;50345;51.136;16.886;2022-11-11T09:17:51;10.98;;;8.20;;
6955;SDS011;50345;51.136;16.886;2022-11-11T09:20:17;10.35;;;8.00;;
6955;SDS011;50345;51.136;16.886;2022-11-11T09:22:47;11.65;;;7.43;;
6955;SDS011;50345;51.136;16.886;2022-11-11T09:25:13;10.35;;;8.80;;
6955;SDS011;50345;51.136;16.886;2022-11-11T09:27:40;10.60;;;7.78;;
6955;SDS011;50345;51.136;16.886;2022-11-11T09:30:06;14.80;;;8.52;;
6955;SDS011;50345;51.136;16.886;2022-11-11T09:32:33;11.45;;;7.70;;
6955;SDS011;50345;51.136;16.886;2022-11-11T09:34:59;10.02;;;7.43;;
6955;SDS011;50345;51.136;16.886;2022-11-11T09:37:26;8.75;;;7.65;;
6955;SDS011;50345;51.136;16.886;2022-11-11T09:39:52;14.93;;;7.72;;
6955;SDS011;50345;51.136;16.886;2022-11-11T09:42:35;13.35;;;7.30;;
6955;SDS011;50345;51.136;16.886;2022-11-11T09:50:34;6.55;;;5.85;;
6955;SDS011;50345;51.136;16.886;2022-11-11T09:53:18;7.30;;;6.38;;
6955;SDS011;50345;51.136;16.886;2022-11-11T09:55:48;10.63;;;7.38;;
6955;SDS011;50345;51.136;16.886;2022-11-11T09:58:18;8.18;;;6.38;;
6955;SDS011;50345;51.136;16.886;2022-11-11T10:00:45;10.48;;;7.80;;
6955;SDS011;50345;51.136;16.886;2022-11-11T10:03:16;8.20;;;7.25;;
6955;SDS011;50345;51.136;16.886;2022-11-11T10:05:43;11.23;;;7.90;;
6955;SDS011;50345;51.136;16.886;2022-11-11T10:08:17;12.90;;;8.18;;
6955;SDS011;50345;51.136;16.886;2022-11-11T10:10:49;9.80;;;7.40;;
6955;SDS011;50345;51.136;16.886;2022-11-11T10:13:16;10.35;;;6.68;;
6955;SDS011;50345;51.136;16.886;2022-11-11T10:15:50;15.05;;;7.97;;
6955;SDS011;50345;51.136;16.886;2022-11-11T10:18:27;11.07;;;8.32;;
6955;SDS011;50345;51.136;16.886;2022-11-11T10:20:56;15.10;;;9.77;;
6955;SDS011;50345;51.136;16.886;2022-11-11T10:23:28;9.02;;;8.07;;
6955;SDS011;50345;51.136;16.886;2022-11-11T10:25:55;14.20;;;9.18;;
6955;SDS011;50345;51.136;16.886;2022-11-11T10:28:28;17.27;;;10.25;;
6955;SDS011;50345;51.136;16.886;2022-11-11T10:30:56;12.85;;;8.38;;
6955;SDS011;50345;51.136;16.886;2022-11-11T10:33:30;11.15;;;7.35;;
6955;SDS011;50345;51.136;16.886;2022-11-11T10:35:59;8.82;;;7.82;;
6955;SDS011;50345;51.136;16.886;2022-11-11T10:39:00;13.40;;;8.73;;
6955;SDS011;50345;51.136;16.886;2022-11-11T10:43:51;8.82;;;6.50;;
6955;SDS011;50345;51.136;16.886;2022-11-11T10:51:09;9.38;;;6.88;;
6955;SDS011;50345;51.136;16.886;2022-11-11T10:53:42;9.10;;;6.88;;
6955;SDS011;50345;51.136;16.886;2022-11-11T10:58:41;7.40;;;5.38;;
6955;SDS011;50345;51.136;16.886;2022-11-11T11:01:09;8.45;;;6.35;;
6955;SDS011;50345;51.136;16.886;2022-11-11T11:03:38;9.05;;;6.40;;
6955;SDS011;50345;51.136;16.886;2022-11-11T11:06:12;8.73;;;5.53;;
6955;SDS011;50345;51.136;16.886;2022-11-11T11:08:50;7.53;;;5.53;;
6955;SDS011;50345;51.136;16.886;2022-11-11T11:11:18;7.88;;;5.47;;
6955;SDS011;50345;51.136;16.886;2022-11-11T11:13:50;10.57;;;6.75;;
6955;SDS011;50345;51.136;16.886;2022-11-11T11:16:19;10.35;;;6.35;;
6955;SDS011;50345;51.136;16.886;2022-11-11T11:24:34;8.02;;;6.22;;
6955;SDS011;50345;51.136;16.886;2022-11-11T11:27:04;7.47;;;6.68;;
6955;SDS011;50345;51.136;16.886;2022-11-11T11:29:38;8.38;;;5.47;;
6955;SDS011;50345;51.136;16.886;2022-11-11T11:32:13;5.57;;;5.07;;
6955;SDS011;50345;51.136;16.886;2022-11-11T11:34:41;7.15;;;5.05;;
6955;SDS011;50345;51.136;16.886;2022-11-11T11:37:08;6.90;;;5.18;;
6955;SDS011;50345;51.136;16.886;2022-11-11T11:39:34;5.68;;;4.95;;
6955;SDS011;50345;51.136;16.886;2022-11-11T11:42:01;9.70;;;5.35;;
6955;SDS011;50345;51.136;16.886;2022-11-11T11:44:27;7.93;;;5.32;;
6955;SDS011;50345;51.136;16.886;2022-11-11T11:46:56;5.80;;;5.20;;
6955;SDS011;50345;51.136;16.886;2022-11-11T11:49:27;9.00;;;6.30;;
6955;SDS011;50345;51.136;16.886;2022-11-11T11:55:00;7.50;;;6.45;;
6955;SDS011;50345;51.136;16.886;2022-11-11T12:00:03;11.40;;;5.50;;
6955;SDS011;50345;51.136;16.886;2022-11-11T12:02:38;7.05;;;4.72;;
6955;SDS011;50345;51.136;16.886;2022-11-11T12:10:52;5.93;;;5.22;;
6955;SDS011;50345;51.136;16.886;2022-11-11T12:12:53;10.88;;;7.40;;
6955;SDS011;50345;51.136;16.886;2022-11-11T12:15:24;8.60;;;6.63;;
6955;SDS011;50345;51.136;16.886;2022-11-11T12:21:02;9.85;;;6.65;;
6955;SDS011;50345;51.136;16.886;2022-11-11T12:24:04;10.18;;;5.57;;
6955;SDS011;50345;51.136;16.886;2022-11-11T12:26:36;6.00;;;5.47;;
6955;SDS011;50345;51.136;16.886;2022-11-11T12:29:15;10.77;;;6.20;;
6955;SDS011;50345;51.136;16.886;2022-11-11T12:31:57;6.25;;;4.82;;
6955;SDS011;50345;51.136;16.886;2022-11-11T12:34:33;9.20;;;6.75;;
6955;SDS011;50345;51.136;16.886;2022-11-11T12:37:11;6.47;;;5.65;;
6955;SDS011;50345;51.136;16.886;2022-11-11T12:42:10;9.40;;;4.77;;
6955;SDS011;50345;51.136;16.886;2022-11-11T12:44:45;5.78;;;5.28;;
6955;SDS011;50345;51.136;16.886;2022-11-11T12:47:21;5.95;;;4.20;;
6955;SDS011;50345;51.136;16.886;2022-11-11T12:49:52;8.35;;;5.60;;
6955;SDS011;50345;51.136;16.886;2022-11-11T12:54:57;8.13;;;5.50;;
6955;SDS011;50345;51.136;16.886;2022-11-11T12:57:34;7.88;;;5.03;;
6955;SDS011;50345;51.136;16.886;2022-11-11T13:00:07;6.82;;;5.13;;
6955;SDS011;50345;51.136;16.886;2022-11-11T13:05:09;7.15;;;5.72;;
6955;SDS011;50345;51.136;16.886;2022-11-11T13:12:54;5.55;;;4.90;;
6955;SDS011;50345;51.136;16.886;2022-11-11T13:15:23;7.72;;;6.68;;
6955;SDS011;50345;51.136;16.886;2022-11-11T13:17:50;8.20;;;5.45;;
6955;SDS011;50345;51.136;16.886;2022-11-11T13:20:18;7.90;;;6.15;;
6955;SDS011;50345;51.136;16.886;2022-11-11T13:22:49;8.88;;;6.43;;
6955;SDS011;50345;51.136;16.886;2022-11-11T13:25:23;9.80;;;5.68;;
6955;SDS011;50345;51.136;16.886;2022-11-11T13:27:52;7.90;;;6.72;;
6955;SDS011;50345;51.136;16.886;2022-11-11T13:30:24;8.52;;;7.72;;
6955;SDS011;50345;51.136;16.886;2022-11-11T13:33:02;10.35;;;6.70;;
6955;SDS011;50345;51.136;16.886;2022-11-11T13:36:12;9.52;;;6.40;;
6955;SDS011;50345;51.136;16.886;2022-11-11T13:38:26;9.32;;;7.28;;
6955;SDS011;50345;51.136;16.886;2022-11-11T13:40:53;6.75;;;5.80;;
6955;SDS011;50345;51.136;16.886;2022-11-11T13:45:50;6.97;;;6.27;;
6955;SDS011;50345;51.136;16.886;2022-11-11T13:48:19;12.13;;;7.75;;
6955;SDS011;50345;51.136;16.886;2022-11-11T13:50:46;9.98;;;8.32;;
6955;SDS011;50345;51.136;16.886;2022-11-11T13:56:08;13.95;;;9.60;;
6955;SDS011;50345;51.136;16.886;2022-11-11T13:58:36;16.42;;;11.45;;
6955;SDS011;50345;51.136;16.886;2022-11-11T14:01:04;15.13;;;10.80;;
6955;SDS011;50345;51.136;16.886;2022-11-11T14:11:26;17.80;;;11.52;;
6955;SDS011;50345;51.136;16.886;2022-11-11T14:13:58;23.23;;;12.25;;
6955;SDS011;50345;51.136;16.886;2022-11-11T14:21:43;8.43;;;7.00;;
6955;SDS011;50345;51.136;16.886;2022-11-11T14:24:17;8.77;;;6.90;;
6955;SDS011;50345;51.136;16.886;2022-11-11T14:26:55;8.48;;;7.53;;
6955;SDS011;50345;51.136;16.886;2022-11-11T14:29:21;10.55;;;8.25;;
6955;SDS011;50345;51.136;16.886;2022-11-11T14:32:00;14.73;;;9.38;;
6955;SDS011;50345;51.136;16.886;2022-11-11T14:34:35;21.55;;;11.05;;
6955;SDS011;50345;51.136;16.886;2022-11-11T14:37:08;21.60;;;11.57;;
6955;SDS011;50345;51.136;16.886;2022-11-11T14:39:44;21.20;;;11.68;;
6955;SDS011;50345;51.136;16.886;2022-11-11T14:44:58;15.68;;;12.35;;
6955;SDS011;50345;51.136;16.886;2022-11-11T14:50:00;15.50;;;11.45;;
6955;SDS011;50345;51.136;16.886;2022-11-11T14:52:41;20.65;;;12.38;;
6955;SDS011;50345;51.136;16.886;2022-11-11T15:00:11;17.38;;;11.13;;
6955;SDS011;50345;51.136;16.886;2022-11-11T15:02:59;13.40;;;11.52;;
6955;SDS011;50345;51.136;16.886;2022-11-11T15:08:14;21.15;;;16.20;;
6955;SDS011;50345;51.136;16.886;2022-11-11T15:10:44;19.92;;;16.25;;
6955;SDS011;50345;51.136;16.886;2022-11-11T15:18:40;53.00;;;47.30;;
6955;SDS011;50345;51.136;16.886;2022-11-11T15:21:19;47.42;;;42.60;;
6955;SDS011;50345;51.136;16.886;2022-11-11T15:23:49;141.35;;;118.88;;
6955;SDS011;50345;51.136;16.886;2022-11-11T15:26:29;152.48;;;118.32;;
6955;SDS011;50345;51.136;16.886;2022-11-11T15:29:00;38.92;;;30.23;;
6955;SDS011;50345;51.136;16.886;2022-11-11T15:34:33;30.55;;;24.27;;
6955;SDS011;50345;51.136;16.886;2022-11-11T15:37:01;44.75;;;34.75;;
6955;SDS011;50345;51.136;16.886;2022-11-11T15:39:35;26.85;;;21.25;;
6955;SDS011;50345;51.136;16.886;2022-11-11T15:42:03;48.45;;;37.60;;
6955;SDS011;50345;51.136;16.886;2022-11-11T15:44:30;25.45;;;19.95;;
6955;SDS011;50345;51.136;16.886;2022-11-11T15:46:57;24.33;;;19.75;;
6955;SDS011;50345;51.136;16.886;2022-11-11T15:49:43;27.05;;;21.88;;
6955;SDS011;50345;51.136;16.886;2022-11-11T15:52:27;25.33;;;17.83;;
6955;SDS011;50345;51.136;16.886;2022-11-11T15:54:54;26.75;;;21.77;;
6955;SDS011;50345;51.136;16.886;2022-11-11T15:57:21;21.05;;;16.83;;
6955;SDS011;50345;51.136;16.886;2022-11-11T15:59:47;21.40;;;18.35;;
6955;SDS011;50345;51.136;16.886;2022-11-11T16:02:16;20.83;;;18.30;;
6955;SDS011;50345;51.136;16.886;2022-11-11T16:04:47;19.55;;;15.60;;
6955;SDS011;50345;51.136;16.886;2022-11-11T16:07:21;26.90;;;20.52;;
6955;SDS011;50345;51.136;16.886;2022-11-11T16:09:48;21.92;;;18.33;;
6955;SDS011;50345;51.136;16.886;2022-11-11T16:12:25;26.13;;;18.08;;
6955;SDS011;50345;51.136;16.886;2022-11-11T16:14:53;31.55;;;25.10;;
6955;SDS011;50345;51.136;16.886;2022-11-11T16:17:23;37.65;;;33.63;;
6955;SDS011;50345;51.136;16.886;2022-11-11T16:19:50;29.63;;;21.40;;
6955;SDS011;50345;51.136;16.886;2022-11-11T16:22:18;36.55;;;29.65;;
6955;SDS011;50345;51.136;16.886;2022-11-11T16:24:45;33.65;;;28.23;;
6955;SDS011;50345;51.136;16.886;2022-11-11T16:27:14;32.33;;;29.02;;
6955;SDS011;50345;51.136;16.886;2022-11-11T16:29:41;26.75;;;23.70;;